createdAt,value
2022-11-21T00:00:01.197Z,930.11
2022-11-21T00:01:01.381Z,930.03
2022-11-21T00:02:02.053Z,929.97
2022-11-21T00:03:02.299Z,929.98
2022-11-21T00:04:02.975Z,929.86
2022-11-21T00:05:03.192Z,929.94
2022-11-21T00:06:03.672Z,929.87
2022-11-21T00:07:04.107Z,929.88
2022-11-21T00:08:04.638Z,930.03
2022-11-21T00:09:05.129Z,929.92
2022-11-21T00:10:06.040Z,929.97
2022-11-21T00:11:06.527Z,929.95
2022-11-21T00:12:06.736Z,929.93
2022-11-21T00:13:07.622Z,929.86
2022-11-21T00:14:07.973Z,929.89
2022-11-21T00:15:08.581Z,929.91
2022-11-21T00:16:09.481Z,929.88
2022-11-21T00:17:10.485Z,929.86
2022-11-21T00:18:10.826Z,929.88
2022-11-21T00:19:11.013Z,929.88
2022-11-21T00:20:11.648Z,929.82
2022-11-21T00:21:12.580Z,929.84
2022-11-21T00:22:13.210Z,929.84
2022-11-21T00:23:14.123Z,929.77
2022-11-21T00:24:14.312Z,929.75
2022-11-21T00:25:15.368Z,929.75
2022-11-21T00:26:15.965Z,929.7
2022-11-21T00:27:16.395Z,929.71
2022-11-21T00:28:17.042Z,929.71
2022-11-21T00:29:17.937Z,929.66
2022-11-21T00:30:18.252Z,929.67
2022-11-21T00:31:19.164Z,929.69
2022-11-21T00:32:20.076Z,929.72
2022-11-21T00:33:20.398Z,929.63
2022-11-21T00:34:21.317Z,929.59
2022-11-21T00:35:22.324Z,929.55
2022-11-21T00:36:23.228Z,929.56
2022-11-21T00:37:23.657Z,929.58
2022-11-21T00:38:24.542Z,929.6
2022-11-21T00:39:25.455Z,929.59
2022-11-21T00:40:26.372Z,929.52
2022-11-21T00:41:27.006Z,929.57
2022-11-21T00:42:27.493Z,929.62
2022-11-21T00:43:27.684Z,929.61
2022-11-21T00:44:28.554Z,929.66
2022-11-21T00:45:29.264Z,929.63
2022-11-21T00:46:30.157Z,929.62
2022-11-21T00:47:30.416Z,929.64
2022-11-21T00:48:30.900Z,929.65
2022-11-21T00:49:31.811Z,929.68
2022-11-21T00:50:32.131Z,929.64
2022-11-21T00:51:32.755Z,929.62
2022-11-21T00:52:32.952Z,929.64
2022-11-21T00:53:33.579Z,929.66
2022-11-21T00:54:34.488Z,929.61
2022-11-21T00:55:34.676Z,929.61
2022-11-21T00:56:35.598Z,929.63
2022-11-21T00:57:35.878Z,929.68
2022-11-21T00:58:36.374Z,929.6
2022-11-21T00:59:37.281Z,929.61
2022-11-21T01:00:38.238Z,929.6
2022-11-21T01:01:38.337Z,929.57
2022-11-21T01:02:38.816Z,929.57
2022-11-21T01:03:39.751Z,929.66
2022-11-21T01:04:39.943Z,929.64
2022-11-21T01:05:40.833Z,929.63
2022-11-21T01:06:41.727Z,929.65
2022-11-21T01:07:42.889Z,929.65
2022-11-21T01:08:43.559Z,929.57
2022-11-21T01:09:43.745Z,929.55
2022-11-21T01:10:44.233Z,929.61
2022-11-21T01:11:44.442Z,929.57
2022-11-21T01:12:45.377Z,929.48
2022-11-21T01:13:46.002Z,929.52
2022-11-21T01:14:46.615Z,929.5
2022-11-21T01:15:47.531Z,929.49
2022-11-21T01:16:48.440Z,929.49
2022-11-21T01:17:48.755Z,929.57
2022-11-21T01:18:49.375Z,929.51
2022-11-21T01:19:50.291Z,929.47
2022-11-21T01:20:50.918Z,929.45
2022-11-21T01:21:51.809Z,929.5
2022-11-21T01:22:52.702Z,929.57
2022-11-21T01:23:53.316Z,929.49
2022-11-21T01:24:53.929Z,929.48
2022-11-21T01:25:54.411Z,929.46
2022-11-21T01:26:54.598Z,929.5
2022-11-21T01:27:55.607Z,929.48
2022-11-21T01:28:56.139Z,929.51
2022-11-21T01:29:56.738Z,929.51
2022-11-21T01:30:57.635Z,929.51
2022-11-21T01:31:58.549Z,929.58
2022-11-21T01:32:58.740Z,929.55
2022-11-21T01:33:59.086Z,929.57
2022-11-21T01:34:59.265Z,929.58
2022-11-21T01:35:59.605Z,929.61
2022-11-21T01:37:00.497Z,929.54
2022-11-21T01:38:01.518Z,929.58
2022-11-21T01:39:01.749Z,929.57
2022-11-21T01:40:01.948Z,929.57
2022-11-21T01:41:02.156Z,929.58
2022-11-21T01:42:02.781Z,929.48
2022-11-21T01:43:03.002Z,929.54
2022-11-21T01:44:03.540Z,929.53
2022-11-21T01:45:04.152Z,929.48
2022-11-21T01:46:04.773Z,929.49
2022-11-21T01:47:05.674Z,929.45
2022-11-21T01:48:05.812Z,929.4
2022-11-21T01:49:06.421Z,929.45
2022-11-21T01:50:10.467Z,929.33
2022-11-21T01:51:07.282Z,929.37
2022-11-21T01:52:07.898Z,929.37
2022-11-21T01:53:08.803Z,929.34
2022-11-21T01:54:09.141Z,929.35
2022-11-21T01:55:09.795Z,929.4
2022-11-21T01:56:10.703Z,929.38
2022-11-21T01:57:11.318Z,929.39
2022-11-21T01:58:12.356Z,929.32
2022-11-21T01:59:12.887Z,929.35
2022-11-21T02:00:13.071Z,929.32
2022-11-21T02:01:14.019Z,929.28
2022-11-21T02:02:14.653Z,929.25
2022-11-21T02:03:15.276Z,929.25
2022-11-21T02:04:15.470Z,929.21
2022-11-21T02:05:15.776Z,929.25
2022-11-21T02:06:16.389Z,929.3
2022-11-21T02:07:17.362Z,929.31
2022-11-21T02:08:18.002Z,929.28
2022-11-21T02:09:18.920Z,929.26
2022-11-21T02:10:19.840Z,929.34
2022-11-21T02:11:20.751Z,929.43
2022-11-21T02:12:21.042Z,929.36
2022-11-21T02:13:21.517Z,929.34
2022-11-21T02:14:22.061Z,929.36
2022-11-21T02:15:22.938Z,929.35
2022-11-21T02:16:23.422Z,929.3
2022-11-21T02:17:23.753Z,929.37
2022-11-21T02:18:24.175Z,929.34
2022-11-21T02:19:24.788Z,929.36
2022-11-21T02:20:25.693Z,929.33
2022-11-21T02:21:26.602Z,929.32
2022-11-21T02:22:26.802Z,929.25
2022-11-21T02:23:27.280Z,929.22
2022-11-21T02:24:28.350Z,929.17
2022-11-21T02:25:29.113Z,929.28
2022-11-21T02:26:29.317Z,929.26
2022-11-21T02:27:29.935Z,929.21
2022-11-21T02:28:30.351Z,929.17
2022-11-21T02:29:30.889Z,929.2
2022-11-21T02:30:31.379Z,929.22
2022-11-21T02:31:31.891Z,929.27
2022-11-21T02:32:32.801Z,929.27
2022-11-21T02:33:33.009Z,929.27
2022-11-21T02:34:33.637Z,929.25
2022-11-21T02:35:34.126Z,929.29
2022-11-21T02:36:34.760Z,929.25
2022-11-21T02:37:35.382Z,929.19
2022-11-21T02:38:36.416Z,929.22
2022-11-21T02:39:37.027Z,929.22
2022-11-21T02:40:37.952Z,929.28
2022-11-21T02:41:38.881Z,929.25
2022-11-21T02:42:39.220Z,929.3
2022-11-21T02:43:39.341Z,929.23
2022-11-21T02:44:39.857Z,929.2
2022-11-21T02:45:40.043Z,929.18
2022-11-21T02:46:40.527Z,929.13
2022-11-21T02:47:41.147Z,929.11
2022-11-21T02:48:41.348Z,929.15
2022-11-21T02:49:41.962Z,929.07
2022-11-21T02:50:42.871Z,929.09
2022-11-21T02:51:43.766Z,929.08
2022-11-21T02:52:44.675Z,929.08
2022-11-21T02:53:44.989Z,929.07
2022-11-21T02:54:45.300Z,929.13
2022-11-21T02:55:46.020Z,929.11
2022-11-21T02:56:47.060Z,929.05
2022-11-21T02:57:47.400Z,929.05
2022-11-21T02:58:47.567Z,929.11
2022-11-21T02:59:48.082Z,929.03
2022-11-21T03:00:49.050Z,929.07
2022-11-21T03:01:49.841Z,929.03
2022-11-21T03:02:50.729Z,929.06
2022-11-21T03:03:51.634Z,928.99
2022-11-21T03:04:51.835Z,929
2022-11-21T03:05:52.447Z,929.06
2022-11-21T03:06:53.055Z,929.03
2022-11-21T03:07:53.397Z,929.06
2022-11-21T03:08:53.858Z,928.94
2022-11-21T03:09:54.203Z,928.99
2022-11-21T03:10:54.690Z,928.93
2022-11-21T03:11:54.896Z,928.94
2022-11-21T03:12:55.106Z,928.85
2022-11-21T03:13:56.060Z,928.97
2022-11-21T03:14:56.680Z,928.79
2022-11-21T03:15:57.584Z,928.78
2022-11-21T03:16:58.213Z,928.77
2022-11-21T03:17:58.547Z,928.77
2022-11-21T03:18:58.994Z,928.71
2022-11-21T03:19:59.913Z,928.71
2022-11-21T03:21:00.822Z,928.67
2022-11-21T03:22:01.718Z,928.62
2022-11-21T03:23:01.950Z,928.6
2022-11-21T03:24:02.593Z,928.57
2022-11-21T03:25:03.217Z,928.58
2022-11-21T03:26:03.411Z,928.54
2022-11-21T03:27:04.023Z,928.51
2022-11-21T03:28:04.928Z,928.45
2022-11-21T03:29:05.078Z,928.41
2022-11-21T03:30:05.607Z,928.36
2022-11-21T03:31:06.513Z,928.34
2022-11-21T03:32:06.998Z,928.33
2022-11-21T03:33:07.186Z,928.32
2022-11-21T03:34:08.096Z,928.37
2022-11-21T03:35:08.801Z,928.31
2022-11-21T03:36:09.465Z,928.34
2022-11-21T03:37:10.376Z,928.3
2022-11-21T03:38:10.712Z,928.28
2022-11-21T03:39:11.804Z,928.33
2022-11-21T03:40:11.983Z,928.33
2022-11-21T03:41:12.887Z,928.41
2022-11-21T03:42:13.220Z,928.33
2022-11-21T03:43:13.556Z,928.33
2022-11-21T03:44:14.068Z,928.27
2022-11-21T03:45:14.309Z,928.23
2022-11-21T03:46:14.498Z,928.26
2022-11-21T03:47:14.681Z,928.24
2022-11-21T03:48:15.591Z,928.3
2022-11-21T03:49:15.861Z,928.29
2022-11-21T03:50:16.756Z,928.17
2022-11-21T03:51:17.796Z,928.23
2022-11-21T03:52:18.706Z,928.22
2022-11-21T03:53:19.590Z,928.23
2022-11-21T03:54:19.773Z,928.2
2022-11-21T03:55:20.087Z,928.29
2022-11-21T03:56:20.696Z,928.31
2022-11-21T03:57:21.731Z,928.34
2022-11-21T03:58:22.062Z,928.33
2022-11-21T03:59:22.405Z,928.35
2022-11-21T04:00:23.030Z,928.39
2022-11-21T04:01:23.247Z,928.35
2022-11-21T04:02:23.319Z,928.35
2022-11-21T04:03:23.512Z,928.36
2022-11-21T04:04:23.855Z,928.4
2022-11-21T04:05:24.243Z,928.37
2022-11-21T04:06:24.442Z,928.36
2022-11-21T04:07:25.388Z,928.31
2022-11-21T04:08:26.127Z,928.37
2022-11-21T04:09:26.835Z,928.31
2022-11-21T04:10:27.042Z,928.22
2022-11-21T04:11:27.930Z,928.26
2022-11-21T04:12:28.413Z,928.34
2022-11-21T04:13:29.322Z,928.36
2022-11-21T04:14:29.999Z,928.39
2022-11-21T04:15:30.786Z,928.41
2022-11-21T04:16:31.399Z,928.36
2022-11-21T04:17:32.316Z,928.29
2022-11-21T04:18:32.642Z,928.29
2022-11-21T04:19:32.968Z,928.32
2022-11-21T04:20:33.445Z,928.31
2022-11-21T04:21:34.062Z,928.25
2022-11-21T04:22:34.966Z,928.21
2022-11-21T04:23:35.601Z,928.24
2022-11-21T04:24:36.515Z,928.2
2022-11-21T04:25:36.996Z,928.19
2022-11-21T04:26:37.330Z,928.16
2022-11-21T04:27:37.944Z,928.1
2022-11-21T04:28:38.280Z,928.18
2022-11-21T04:29:38.987Z,928.15
2022-11-21T04:30:39.531Z,928.17
2022-11-21T04:31:40.457Z,928.23
2022-11-21T04:32:40.938Z,928.16
2022-11-21T04:33:41.553Z,928.14
2022-11-21T04:34:41.767Z,928.11
2022-11-21T04:35:42.660Z,928.01
2022-11-21T04:36:43.312Z,928.02
2022-11-21T04:37:43.568Z,927.97
2022-11-21T04:38:44.159Z,927.91
2022-11-21T04:39:44.917Z,927.88
2022-11-21T04:40:45.127Z,927.86
2022-11-21T04:41:46.039Z,927.84
2022-11-21T04:42:46.522Z,927.74
2022-11-21T04:43:47.506Z,927.71
2022-11-21T04:44:48.139Z,927.63
2022-11-21T04:45:48.669Z,927.62
2022-11-21T04:46:48.877Z,927.57
2022-11-21T04:47:49.469Z,927.6
2022-11-21T04:48:50.382Z,927.57
2022-11-21T04:49:50.638Z,927.51
2022-11-21T04:50:51.552Z,927.57
2022-11-21T04:51:52.179Z,927.58
2022-11-21T04:52:52.663Z,927.4
2022-11-21T04:53:53.571Z,927.49
2022-11-21T04:54:53.905Z,927.45
2022-11-21T04:55:54.818Z,927.48
2022-11-21T04:56:55.158Z,927.51
2022-11-21T04:57:56.075Z,927.52
2022-11-21T04:58:56.979Z,927.46
2022-11-21T04:59:57.721Z,927.49
2022-11-21T05:00:58.459Z,927.54
2022-11-21T05:01:59.411Z,927.51
2022-11-21T05:03:00.319Z,927.46
2022-11-21T05:04:00.910Z,927.43
2022-11-21T05:05:01.519Z,927.52
2022-11-21T05:06:02.135Z,927.52
2022-11-21T05:07:02.367Z,927.53
2022-11-21T05:08:03.268Z,927.49
2022-11-21T05:09:03.886Z,927.56
2022-11-21T05:10:04.167Z,927.55
2022-11-21T05:11:05.087Z,927.63
2022-11-21T05:12:05.565Z,927.51
2022-11-21T05:13:06.461Z,927.56
2022-11-21T05:14:07.072Z,927.57
2022-11-21T05:15:08.005Z,927.55
2022-11-21T05:16:08.815Z,927.54
2022-11-21T05:17:09.148Z,927.6
2022-11-21T05:18:10.053Z,927.62
2022-11-21T05:19:10.655Z,927.62
2022-11-21T05:20:11.354Z,927.64
2022-11-21T05:21:12.267Z,927.55
2022-11-21T05:22:12.886Z,927.6
2022-11-21T05:23:13.222Z,927.59
2022-11-21T05:24:13.555Z,927.71
2022-11-21T05:25:14.496Z,927.73
2022-11-21T05:26:14.688Z,927.68
2022-11-21T05:27:15.175Z,927.71
2022-11-21T05:28:15.655Z,927.68
2022-11-21T05:29:16.273Z,927.62
2022-11-21T05:30:17.166Z,927.66
2022-11-21T05:31:17.726Z,927.63
2022-11-21T05:32:18.663Z,927.58
2022-11-21T05:33:18.849Z,927.66
2022-11-21T05:34:19.059Z,927.69
2022-11-21T05:35:19.922Z,927.68
2022-11-21T05:36:20.331Z,927.74
2022-11-21T05:37:20.641Z,927.74
2022-11-21T05:38:21.573Z,927.74
2022-11-21T05:39:22.501Z,927.73
2022-11-21T05:40:23.519Z,927.73
2022-11-21T05:41:24.445Z,927.68
2022-11-21T05:42:25.356Z,927.73
2022-11-21T05:43:25.986Z,927.7
2022-11-21T05:44:26.491Z,927.68
2022-11-21T05:45:27.058Z,927.84
2022-11-21T05:46:27.616Z,927.77
2022-11-21T05:47:28.651Z,927.8
2022-11-21T05:48:29.140Z,927.85
2022-11-21T05:49:30.064Z,927.88
2022-11-21T05:50:31.048Z,927.75
2022-11-21T05:51:31.939Z,927.79
2022-11-21T05:52:32.594Z,927.81
2022-11-21T05:53:33.208Z,927.8
2022-11-21T05:54:33.536Z,927.76
2022-11-21T05:55:34.436Z,927.78
2022-11-21T05:56:35.051Z,927.71
2022-11-21T05:57:35.663Z,927.68
2022-11-21T05:58:36.570Z,927.69
2022-11-21T05:59:36.774Z,927.73
2022-11-21T06:00:37.388Z,927.78
2022-11-21T06:01:38.171Z,927.8
2022-11-21T06:02:38.804Z,927.84
2022-11-21T06:03:39.287Z,927.82
2022-11-21T06:04:39.977Z,927.79
2022-11-21T06:05:40.884Z,927.78
2022-11-21T06:06:41.066Z,927.77
2022-11-21T06:07:41.344Z,927.78
2022-11-21T06:08:41.884Z,927.79
2022-11-21T06:09:42.091Z,927.75
2022-11-21T06:10:42.802Z,927.77
2022-11-21T06:11:43.716Z,927.73
2022-11-21T06:12:44.620Z,927.75
2022-11-21T06:13:45.227Z,927.8
2022-11-21T06:14:45.560Z,927.85
2022-11-21T06:15:46.499Z,927.91
2022-11-21T06:16:47.016Z,927.9
2022-11-21T06:17:47.202Z,927.88
2022-11-21T06:18:47.831Z,927.91
2022-11-21T06:19:48.569Z,927.93
2022-11-21T06:20:48.860Z,927.98
2022-11-21T06:21:49.485Z,927.88
2022-11-21T06:22:49.860Z,927.79
2022-11-21T06:23:49.964Z,927.83
2022-11-21T06:24:50.857Z,927.84
2022-11-21T06:25:51.770Z,927.9
2022-11-21T06:26:52.408Z,927.89
2022-11-21T06:27:53.322Z,927.96
2022-11-21T06:28:54.217Z,927.89
2022-11-21T06:29:54.840Z,927.91
2022-11-21T06:30:55.199Z,927.97
2022-11-21T06:31:56.015Z,928
2022-11-21T06:32:57.022Z,927.94
2022-11-21T06:33:57.136Z,927.94
2022-11-21T06:34:57.753Z,927.94
2022-11-21T06:35:58.369Z,927.94
2022-11-21T06:36:58.710Z,927.92
2022-11-21T06:37:59.233Z,927.96
2022-11-21T06:38:59.543Z,928.06
2022-11-21T06:40:00.168Z,928.08
2022-11-21T06:41:00.765Z,928.09
2022-11-21T06:42:01.408Z,928.04
2022-11-21T06:43:02.039Z,927.99
2022-11-21T06:44:02.232Z,928.02
2022-11-21T06:45:03.180Z,928.11
2022-11-21T06:46:03.522Z,928.05
2022-11-21T06:47:04.049Z,927.95
2022-11-21T06:48:04.235Z,928.02
2022-11-21T06:49:04.852Z,928.03
2022-11-21T06:50:05.740Z,928.12
2022-11-21T06:51:06.154Z,928.07
2022-11-21T06:52:06.778Z,928.19
2022-11-21T06:53:06.973Z,928.2
2022-11-21T06:54:07.869Z,928.16
2022-11-21T06:55:08.923Z,928.04
2022-11-21T06:56:09.808Z,928.09
2022-11-21T06:57:10.000Z,928.18
2022-11-21T06:58:10.924Z,928.26
2022-11-21T06:59:11.269Z,928.33
2022-11-21T07:00:11.454Z,928.16
2022-11-21T07:01:12.143Z,928.22
2022-11-21T07:02:13.081Z,928.37
2022-11-21T07:03:13.563Z,928.34
2022-11-21T07:04:13.756Z,928.34
2022-11-21T07:05:14.391Z,928.31
2022-11-21T07:06:14.592Z,928.35
2022-11-21T07:07:15.265Z,928.37
2022-11-21T07:08:16.104Z,928.34
2022-11-21T07:09:32.609Z,928.37
2022-11-21T07:10:17.906Z,928.4
2022-11-21T07:11:26.413Z,928.51
2022-11-21T07:12:27.030Z,928.53
2022-11-21T07:13:27.945Z,928.55
2022-11-21T07:14:28.148Z,928.55
2022-11-21T07:15:28.776Z,928.58
2022-11-21T07:16:29.436Z,928.54
2022-11-21T07:17:30.075Z,928.55
2022-11-21T07:18:30.395Z,928.6
2022-11-21T07:19:31.166Z,928.59
2022-11-21T07:20:31.581Z,928.61
2022-11-21T07:21:32.594Z,928.62
2022-11-21T07:22:32.911Z,928.64
2022-11-21T07:23:33.121Z,928.73
2022-11-21T07:24:33.740Z,928.67
2022-11-21T07:25:36.734Z,928.78
2022-11-21T07:26:34.861Z,928.85
2022-11-21T07:27:35.901Z,928.98
2022-11-21T07:28:36.795Z,928.93
2022-11-21T07:29:36.976Z,928.92
2022-11-21T07:30:37.180Z,928.98
2022-11-21T07:31:37.894Z,929.02
2022-11-21T07:32:38.420Z,928.95
2022-11-21T07:33:38.621Z,928.89
2022-11-21T07:34:39.060Z,928.88
2022-11-21T07:35:39.405Z,928.92
2022-11-21T07:36:40.022Z,928.97
2022-11-21T07:37:40.639Z,928.96
2022-11-21T07:38:41.980Z,929
2022-11-21T07:39:41.742Z,928.98
2022-11-21T07:40:42.377Z,928.95
2022-11-21T07:41:42.697Z,928.99
2022-11-21T07:42:43.320Z,928.97
2022-11-21T07:43:44.213Z,928.94
2022-11-21T07:44:44.424Z,928.93
2022-11-21T07:45:45.358Z,928.92
2022-11-21T07:46:46.036Z,928.93
2022-11-21T07:47:46.575Z,928.91
2022-11-21T07:48:47.069Z,928.85
2022-11-21T07:49:47.604Z,928.86
2022-11-21T07:50:48.146Z,928.82
2022-11-21T07:51:48.736Z,928.78
2022-11-21T07:52:49.374Z,928.82
2022-11-21T07:53:50.004Z,928.79
2022-11-21T07:54:50.918Z,928.84
2022-11-21T07:55:51.147Z,928.89
2022-11-21T07:56:51.776Z,928.88
2022-11-21T07:57:52.690Z,928.88
2022-11-21T07:58:53.178Z,928.82
2022-11-21T07:59:53.386Z,928.82
2022-11-21T08:00:53.583Z,928.77
2022-11-21T08:01:54.721Z,928.89
2022-11-21T08:02:55.618Z,928.95
2022-11-21T08:03:56.368Z,928.99
2022-11-21T08:04:56.585Z,928.97
2022-11-21T08:05:57.197Z,929.03
2022-11-21T08:06:57.699Z,929.03
2022-11-21T08:07:58.507Z,928.94
2022-11-21T08:08:58.764Z,928.94
2022-11-21T08:09:58.956Z,928.88
2022-11-21T08:10:59.924Z,928.91
2022-11-21T08:12:00.937Z,928.85
2022-11-21T08:13:01.437Z,928.9
2022-11-21T08:14:01.936Z,928.89
2022-11-21T08:15:02.852Z,928.87
2022-11-21T08:16:03.827Z,928.86
2022-11-21T08:17:04.202Z,928.89
2022-11-21T08:18:04.867Z,928.88
2022-11-21T08:19:05.516Z,928.85
2022-11-21T08:20:05.721Z,928.84
2022-11-21T08:21:06.668Z,928.83
2022-11-21T08:22:07.527Z,928.8
2022-11-21T08:23:08.163Z,928.78
2022-11-21T08:24:08.367Z,928.8
2022-11-21T08:25:08.987Z,928.77
2022-11-21T08:26:09.480Z,928.74
2022-11-21T08:27:09.936Z,928.75
2022-11-21T08:28:10.340Z,928.76
2022-11-21T08:29:10.560Z,928.76
2022-11-21T08:30:11.027Z,928.84
2022-11-21T08:31:11.287Z,928.77
2022-11-21T08:32:12.132Z,928.75
2022-11-21T08:33:12.690Z,928.77
2022-11-21T08:34:14.525Z,928.76
2022-11-21T08:35:13.886Z,928.76
2022-11-21T08:36:14.103Z,928.75
2022-11-21T08:37:15.055Z,928.8
2022-11-21T08:38:15.965Z,928.76
2022-11-21T08:39:16.589Z,928.78
2022-11-21T08:40:16.909Z,928.79
2022-11-21T08:41:17.979Z,928.75
2022-11-21T08:42:18.643Z,928.77
2022-11-21T08:43:19.161Z,928.8
2022-11-21T08:44:19.527Z,928.79
2022-11-21T08:45:20.186Z,928.82
2022-11-21T08:46:20.590Z,928.78
2022-11-21T08:47:20.790Z,928.79
2022-11-21T08:48:21.381Z,928.88
2022-11-21T08:49:22.285Z,928.87
2022-11-21T08:50:22.850Z,928.81
2022-11-21T08:51:23.787Z,928.77
2022-11-21T08:52:24.345Z,928.8
2022-11-21T08:53:24.805Z,928.8
2022-11-21T08:54:26.036Z,928.82
2022-11-21T08:55:26.099Z,928.81
2022-11-21T08:56:26.791Z,928.76
2022-11-21T08:57:27.720Z,928.78
2022-11-21T08:58:28.045Z,928.78
2022-11-21T08:59:28.597Z,928.75
2022-11-21T09:00:28.812Z,928.75
2022-11-21T09:01:29.096Z,928.74
2022-11-21T09:02:29.859Z,928.74
2022-11-21T09:03:31.452Z,928.77
2022-11-21T09:04:30.950Z,928.71
2022-11-21T09:05:31.106Z,928.69
2022-11-21T09:06:31.767Z,928.69
2022-11-21T09:07:32.553Z,928.62
2022-11-21T09:08:33.122Z,928.63
2022-11-21T09:09:34.043Z,928.64
2022-11-21T09:10:34.235Z,928.65
2022-11-21T09:11:34.860Z,928.69
2022-11-21T09:12:35.420Z,928.65
2022-11-21T09:13:35.630Z,928.55
2022-11-21T09:14:36.574Z,928.63
2022-11-21T09:15:37.470Z,928.61
2022-11-21T09:16:38.377Z,928.63
2022-11-21T09:17:39.359Z,928.66
2022-11-21T09:18:40.009Z,928.73
2022-11-21T09:19:40.297Z,928.63
2022-11-21T09:20:40.690Z,928.67
2022-11-21T09:21:41.510Z,928.67
2022-11-21T09:22:42.156Z,928.69
2022-11-21T09:23:42.642Z,928.65
2022-11-21T09:24:43.565Z,928.67
2022-11-21T09:25:43.770Z,928.76
2022-11-21T09:26:44.683Z,928.72
2022-11-21T09:27:46.882Z,928.76
2022-11-21T09:28:46.979Z,928.71
2022-11-21T09:29:51.136Z,928.77
2022-11-21T09:30:47.144Z,928.79
2022-11-21T09:31:47.275Z,928.78
2022-11-21T09:32:47.566Z,928.8
2022-11-21T09:33:52.180Z,928.81
2022-11-21T09:34:48.575Z,928.83
2022-11-21T09:35:49.508Z,928.8
2022-11-21T09:36:49.700Z,928.7
2022-11-21T09:37:50.597Z,928.8
2022-11-21T09:38:51.525Z,928.79
2022-11-21T09:39:52.164Z,928.82
2022-11-21T09:40:52.361Z,928.82
2022-11-21T09:41:53.123Z,928.88
2022-11-21T09:42:53.719Z,928.81
2022-11-21T09:43:55.791Z,928.82
2022-11-21T09:44:55.378Z,928.81
2022-11-21T09:45:55.582Z,928.8
2022-11-21T09:46:55.797Z,928.82
2022-11-21T09:47:56.134Z,928.81
2022-11-21T09:48:56.707Z,928.77
2022-11-21T09:49:57.672Z,928.83
2022-11-21T09:50:59.109Z,928.79
2022-11-21T09:51:59.130Z,928.81
2022-11-21T09:52:59.965Z,928.78
2022-11-21T09:54:00.161Z,928.79
2022-11-21T09:55:01.190Z,928.77
2022-11-21T09:56:02.226Z,928.79
2022-11-21T09:57:03.009Z,928.73
2022-11-21T09:58:03.784Z,928.74
2022-11-21T09:59:03.865Z,928.72
2022-11-21T10:00:04.351Z,928.73
2022-11-21T10:01:05.384Z,928.7
2022-11-21T10:02:05.428Z,928.67
2022-11-21T10:03:06.062Z,928.7
2022-11-21T10:04:06.499Z,928.68
2022-11-21T10:05:06.697Z,928.58
2022-11-21T10:06:07.324Z,928.63
2022-11-21T10:07:07.626Z,928.58
2022-11-21T10:08:08.250Z,928.57
2022-11-21T10:09:08.470Z,928.48
2022-11-21T10:10:08.670Z,928.42
2022-11-21T10:11:16.256Z,928.43
2022-11-21T10:12:09.046Z,928.44
2022-11-21T10:13:09.503Z,928.41
2022-11-21T10:14:10.000Z,928.39
2022-11-21T10:15:10.953Z,928.3
2022-11-21T10:16:11.619Z,928.33
2022-11-21T10:17:12.243Z,928.41
2022-11-21T10:18:12.630Z,928.41
2022-11-21T10:19:13.361Z,928.4
2022-11-21T10:20:14.286Z,928.36
2022-11-21T10:21:15.352Z,928.38
2022-11-21T10:22:15.994Z,928.38
2022-11-21T10:23:16.391Z,928.37
2022-11-21T10:24:17.352Z,928.34
2022-11-21T10:25:20.679Z,928.36
2022-11-21T10:26:18.510Z,928.26
2022-11-21T10:27:18.732Z,928.21
2022-11-21T10:28:19.398Z,928.24
2022-11-21T10:29:19.898Z,928.29
2022-11-21T10:30:20.818Z,928.28
2022-11-21T10:31:21.135Z,928.19
2022-11-21T10:32:22.074Z,928.22
2022-11-21T10:33:22.866Z,928.21
2022-11-21T10:34:23.420Z,928.12
2022-11-21T10:35:24.235Z,928.08
2022-11-21T10:36:25.182Z,928.06
2022-11-21T10:37:26.081Z,928.05
2022-11-21T10:38:26.583Z,928.05
2022-11-21T10:39:27.506Z,928.01
2022-11-21T10:40:27.719Z,928.02
2022-11-21T10:41:27.919Z,928.06
2022-11-21T10:42:28.835Z,928.14
2022-11-21T10:43:29.445Z,928.13
2022-11-21T10:44:29.913Z,928.12
2022-11-21T10:45:30.040Z,928.1
2022-11-21T10:46:31.091Z,928.08
2022-11-21T10:47:31.309Z,928.05
2022-11-21T10:48:31.866Z,928.08
2022-11-21T10:49:32.422Z,928.01
2022-11-21T10:50:33.365Z,928.02
2022-11-21T10:51:34.314Z,927.97
2022-11-21T10:52:35.208Z,927.93
2022-11-21T10:53:35.913Z,927.91
2022-11-21T10:54:36.278Z,927.87
2022-11-21T10:55:36.494Z,927.86
2022-11-21T10:56:37.459Z,927.85
2022-11-21T10:57:37.957Z,927.83
2022-11-21T10:58:38.227Z,927.76
2022-11-21T10:59:39.152Z,927.79
2022-11-21T11:00:39.677Z,927.77
2022-11-21T11:01:40.007Z,927.76
2022-11-21T11:02:40.495Z,927.73
2022-11-21T11:03:40.983Z,927.73
2022-11-21T11:04:52.849Z,927.7
2022-11-21T11:05:53.382Z,927.68
2022-11-21T11:06:54.312Z,927.69
2022-11-21T11:07:55.178Z,927.69
2022-11-21T11:08:55.676Z,927.62
2022-11-21T11:09:56.170Z,927.6
2022-11-21T11:10:56.394Z,927.63
2022-11-21T11:11:56.516Z,927.6
2022-11-21T11:12:56.753Z,927.61
2022-11-21T11:14:24.443Z,927.57
2022-11-21T11:15:25.434Z,927.56
2022-11-21T11:16:25.649Z,927.59
2022-11-21T11:17:26.654Z,927.54
2022-11-21T11:18:26.870Z,927.52
2022-11-21T11:19:34.177Z,927.45
2022-11-21T11:20:27.892Z,927.47
2022-11-21T11:21:28.104Z,927.39
2022-11-21T11:22:28.300Z,927.4
2022-11-21T11:23:28.534Z,927.33
2022-11-21T11:24:28.837Z,927.31
2022-11-21T11:25:29.475Z,927.3
2022-11-21T11:26:30.111Z,927.3
2022-11-21T11:27:30.753Z,927.31
2022-11-21T11:28:31.250Z,927.3
2022-11-21T11:29:31.794Z,927.32
2022-11-21T11:30:31.961Z,927.31
2022-11-21T11:31:32.485Z,927.3
2022-11-21T11:32:32.827Z,927.28
2022-11-21T11:33:33.050Z,927.22
2022-11-21T11:34:33.365Z,927.17
2022-11-21T11:35:34.407Z,927.16
2022-11-21T11:36:35.261Z,927.16
2022-11-21T11:37:40.269Z,927.2
2022-11-21T11:38:36.547Z,927.23
2022-11-21T11:39:36.757Z,927.23
2022-11-21T11:40:36.945Z,927.21
2022-11-21T11:41:37.222Z,927.2
2022-11-21T11:42:37.424Z,927.14
2022-11-21T11:43:38.335Z,927.11
2022-11-21T11:44:39.357Z,927.14
2022-11-21T11:45:39.853Z,927.13
2022-11-21T11:46:40.053Z,927.18
2022-11-21T11:47:40.374Z,927.17
2022-11-21T11:49:03.534Z,927.17
2022-11-21T11:49:41.592Z,927.18
2022-11-21T11:50:41.711Z,927.16
2022-11-21T11:51:42.000Z,927.17
2022-11-21T11:52:42.500Z,927.13
2022-11-21T11:53:43.764Z,927.11
2022-11-21T11:54:43.599Z,927.05
2022-11-21T11:55:43.923Z,927.05
2022-11-21T11:56:44.577Z,927.06
2022-11-21T11:57:44.786Z,927.11
2022-11-21T11:58:45.699Z,927.08
2022-11-21T11:59:46.936Z,927.05
2022-11-21T12:00:46.395Z,927.04
2022-11-21T12:01:46.919Z,927.06
2022-11-21T12:02:47.288Z,927.03
2022-11-21T12:03:47.546Z,927.05
2022-11-21T12:04:48.121Z,927.03
2022-11-21T12:05:48.740Z,927.02
2022-11-21T12:07:54.285Z,926.99
2022-11-21T12:08:54.648Z,926.91
2022-11-21T12:09:55.017Z,926.94
2022-11-21T12:10:55.947Z,926.88
2022-11-21T12:11:56.173Z,926.91
2022-11-21T12:12:57.091Z,926.9
2022-11-21T12:13:58.021Z,926.83
2022-11-21T12:14:58.227Z,926.84
2022-11-21T12:16:03.420Z,926.78
2022-11-21T12:16:59.125Z,926.75
2022-11-21T12:18:00.115Z,926.66
2022-11-21T12:19:00.758Z,926.64
2022-11-21T12:20:01.407Z,926.63
2022-11-21T12:21:01.719Z,926.59
2022-11-21T12:22:02.314Z,926.58
2022-11-21T12:23:02.814Z,926.54
2022-11-21T12:24:03.485Z,926.48
2022-11-21T12:25:04.429Z,926.5
2022-11-21T12:26:04.785Z,926.5
2022-11-21T12:27:04.985Z,926.46
2022-11-21T12:28:05.227Z,926.46
2022-11-21T12:29:05.438Z,926.44
2022-11-21T12:30:06.360Z,926.46
2022-11-21T12:31:07.295Z,926.46
2022-11-21T12:32:07.698Z,926.4
2022-11-21T12:33:09.125Z,926.34
2022-11-21T12:34:08.299Z,926.3
2022-11-21T12:35:09.116Z,926.25
2022-11-21T12:36:19.173Z,926.23
2022-11-21T12:37:19.770Z,926.19
2022-11-21T12:38:20.270Z,926.18
2022-11-21T12:39:20.786Z,926.2